createdAt,value
2023-12-01T00:01:47.266Z,10.26
2023-12-01T00:04:13.800Z,10.21
2023-12-01T00:06:40.376Z,10.17
2023-12-01T00:09:06.804Z,10.40
2023-12-01T00:11:33.310Z,10.66
2023-12-01T00:13:59.747Z,10.43
2023-12-01T00:16:26.157Z,10.33
2023-12-01T00:18:52.620Z,10.40
2023-12-01T00:21:19.046Z,10.17
2023-12-01T00:23:45.448Z,10.77
2023-12-01T00:26:11.835Z,11.34
2023-12-01T00:28:38.269Z,11.43
2023-12-01T00:31:04.690Z,11.94
2023-12-01T00:33:31.254Z,11.67
2023-12-01T00:35:57.680Z,12.61
2023-12-01T00:38:24.102Z,12.25
2023-12-01T00:40:50.514Z,11.59
2023-12-01T00:43:17.007Z,11.91
2023-12-01T00:45:43.524Z,11.38
2023-12-01T00:48:09.993Z,11.67
2023-12-01T00:50:36.483Z,11.54
2023-12-01T00:53:02.924Z,12.00
2023-12-01T00:55:29.348Z,10.98
2023-12-01T00:57:55.919Z,10.36
2023-12-01T01:00:22.467Z,10.76
2023-12-01T01:02:48.932Z,10.46
2023-12-01T01:05:15.477Z,9.99
2023-12-01T01:07:41.907Z,10.53
2023-12-01T01:10:08.394Z,10.94
2023-12-01T01:12:34.861Z,9.79
2023-12-01T01:15:01.293Z,9.00
2023-12-01T01:17:27.725Z,9.66
2023-12-01T01:19:54.128Z,9.67
2023-12-01T01:22:20.515Z,9.58
2023-12-01T01:24:47.025Z,9.38
2023-12-01T01:27:13.501Z,9.91
2023-12-01T01:29:39.937Z,9.93
2023-12-01T01:32:07.244Z,10.01
2023-12-01T01:34:33.758Z,9.53
2023-12-01T01:37:00.263Z,10.31
2023-12-01T01:39:26.719Z,9.65
2023-12-01T01:41:53.188Z,10.04
2023-12-01T01:44:19.626Z,10.08
2023-12-01T01:46:46.121Z,9.94
2023-12-01T01:49:12.653Z,10.25
2023-12-01T01:51:39.192Z,10.12
2023-12-01T01:54:05.641Z,10.00
2023-12-01T01:56:32.042Z,10.55
2023-12-01T01:58:58.489Z,10.36
2023-12-01T02:01:25.084Z,10.51
2023-12-01T02:03:51.602Z,10.93
2023-12-01T02:06:18.030Z,11.04
2023-12-01T02:08:44.571Z,11.35
2023-12-01T02:11:10.962Z,11.32
2023-12-01T02:13:37.392Z,11.72
2023-12-01T02:16:03.813Z,11.99
2023-12-01T02:18:30.359Z,12.02
2023-12-01T02:20:56.811Z,12.09
2023-12-01T02:23:23.361Z,11.74
2023-12-01T02:25:49.826Z,11.24
2023-12-01T02:28:16.285Z,9.93
2023-12-01T02:30:42.813Z,10.05
2023-12-01T02:33:09.274Z,9.49
2023-12-01T02:35:35.728Z,9.36
2023-12-01T02:38:02.240Z,9.27
2023-12-01T02:40:28.732Z,9.81
2023-12-01T02:42:55.154Z,9.40
2023-12-01T02:45:21.622Z,9.07
2023-12-01T02:47:48.094Z,8.96
2023-12-01T02:50:14.544Z,8.92
2023-12-01T02:52:40.948Z,9.16
2023-12-01T02:55:07.374Z,9.18
2023-12-01T02:57:33.940Z,8.85
2023-12-01T03:00:00.421Z,8.75
2023-12-01T03:02:26.933Z,8.67
2023-12-01T03:04:53.343Z,9.15
2023-12-01T03:07:19.785Z,9.18
2023-12-01T03:09:46.249Z,9.73
2023-12-01T03:12:12.649Z,9.72
2023-12-01T03:14:39.096Z,9.34
2023-12-01T03:17:26.802Z,9.79
2023-12-01T03:19:53.372Z,9.77
2023-12-01T03:22:19.783Z,10.06
2023-12-01T03:24:46.217Z,10.36
2023-12-01T03:27:12.641Z,10.41
2023-12-01T03:29:39.153Z,10.39
2023-12-01T03:32:05.616Z,10.81
2023-12-01T03:34:32.105Z,10.85
2023-12-01T03:36:58.515Z,11.19
2023-12-01T03:39:24.966Z,12.10
2023-12-01T03:41:51.371Z,11.44
2023-12-01T03:44:17.938Z,10.74
2023-12-01T03:46:44.475Z,10.81
2023-12-01T03:49:10.938Z,10.87
2023-12-01T03:51:37.392Z,11.03
2023-12-01T03:54:03.815Z,10.66
2023-12-01T03:56:30.269Z,10.29
2023-12-01T03:58:56.649Z,10.51
2023-12-01T04:01:23.089Z,10.30
2023-12-01T04:03:49.604Z,10.10
2023-12-01T04:06:16.552Z,10.71
2023-12-01T04:08:43.033Z,11.77
2023-12-01T04:11:09.450Z,11.55
2023-12-01T04:13:35.908Z,12.52
2023-12-01T04:16:02.443Z,10.77
2023-12-01T04:18:28.908Z,10.43
2023-12-01T04:20:55.326Z,11.70
2023-12-01T04:23:21.733Z,10.63
2023-12-01T04:25:48.344Z,9.44
2023-12-01T04:28:14.861Z,8.97
2023-12-01T04:30:41.342Z,9.66
2023-12-01T04:33:07.847Z,9.43
2023-12-01T04:35:34.351Z,8.90
2023-12-01T04:38:03.861Z,8.06
2023-12-01T04:40:30.337Z,8.31
2023-12-01T04:42:56.797Z,6.72
2023-12-01T04:45:23.205Z,7.25
2023-12-01T04:47:49.688Z,7.67
2023-12-01T04:50:16.134Z,8.48
2023-12-01T04:52:42.625Z,9.65
2023-12-01T04:55:09.110Z,11.01
2023-12-01T04:57:35.603Z,10.54
2023-12-01T05:00:02.066Z,11.76
2023-12-01T05:02:28.577Z,11.92
2023-12-01T05:04:55.076Z,10.72
2023-12-01T05:07:21.719Z,9.90
2023-12-01T05:09:48.177Z,9.43
2023-12-01T05:12:14.615Z,10.24
2023-12-01T05:14:41.124Z,9.83
2023-12-01T05:17:07.546Z,10.04
2023-12-01T05:19:33.953Z,9.87
2023-12-01T05:22:00.400Z,10.09
2023-12-01T05:24:26.934Z,9.84
2023-12-01T05:26:55.242Z,10.62
2023-12-01T05:29:21.882Z,10.95
2023-12-01T05:31:48.305Z,10.38
2023-12-01T05:34:14.881Z,10.44
2023-12-01T05:36:41.467Z,10.58
2023-12-01T05:39:07.901Z,10.43
2023-12-01T05:41:34.329Z,10.80
2023-12-01T05:44:00.808Z,10.57
2023-12-01T05:46:27.333Z,10.80
2023-12-01T05:48:53.811Z,10.29
2023-12-01T05:51:20.243Z,10.69
2023-12-01T05:53:46.651Z,10.53
2023-12-01T05:56:13.082Z,10.71
2023-12-01T05:58:39.519Z,10.30
2023-12-01T06:01:06.032Z,10.54
2023-12-01T06:03:32.477Z,10.67
2023-12-01T06:05:58.979Z,10.51
2023-12-01T06:08:25.386Z,10.91
2023-12-01T06:10:51.802Z,10.83
2023-12-01T06:13:18.308Z,10.97
2023-12-01T06:15:44.828Z,10.98
2023-12-01T06:18:11.320Z,11.31
2023-12-01T06:20:37.784Z,12.03
2023-12-01T06:23:04.280Z,11.13
2023-12-01T06:25:31.045Z,11.49
2023-12-01T06:27:57.678Z,11.87
2023-12-01T06:30:24.340Z,11.78
2023-12-01T06:32:50.775Z,11.92
2023-12-01T06:35:17.246Z,12.13
2023-12-01T06:37:45.995Z,12.07
2023-12-01T06:40:13.526Z,12.02
2023-12-01T06:42:40.333Z,11.41
2023-12-01T06:45:06.822Z,11.10
2023-12-01T06:47:33.333Z,11.86
2023-12-01T06:49:59.793Z,12.56
2023-12-01T06:52:27.643Z,12.74
2023-12-01T06:54:54.950Z,12.34
2023-12-01T06:57:21.390Z,11.91
2023-12-01T06:59:47.834Z,11.90
2023-12-01T07:02:14.297Z,10.93
2023-12-01T07:04:40.737Z,9.04
2023-12-01T07:07:07.219Z,8.86
2023-12-01T07:09:35.124Z,6.75
2023-12-01T07:12:02.643Z,6.55
2023-12-01T07:14:29.077Z,6.08
2023-12-01T07:16:55.551Z,6.25
2023-12-01T07:19:22.047Z,5.57
2023-12-01T07:21:48.495Z,4.89
2023-12-01T07:24:14.994Z,5.05
2023-12-01T07:26:41.387Z,4.71
2023-12-01T07:29:07.869Z,4.75
2023-12-01T07:31:34.317Z,6.02
2023-12-01T07:34:00.778Z,3.31
2023-12-01T07:36:35.531Z,2.04
2023-12-01T07:39:07.511Z,2.15
2023-12-01T07:41:34.676Z,2.47
2023-12-01T07:44:01.102Z,1.85
2023-12-01T07:46:27.600Z,1.16
2023-12-01T07:48:54.110Z,0.58
2023-12-01T07:51:35.827Z,0.94
2023-12-01T07:54:02.236Z,0.79
2023-12-01T07:56:28.644Z,0.72
2023-12-01T07:58:55.074Z,0.63
2023-12-01T08:01:21.478Z,0.50
2023-12-01T08:03:51.229Z,0.66
2023-12-01T08:06:17.642Z,0.75
2023-12-01T08:08:44.070Z,2.57
2023-12-01T08:11:10.613Z,5.02
2023-12-01T08:13:37.055Z,5.53
2023-12-01T08:16:03.606Z,5.59
2023-12-01T08:18:30.090Z,4.97
2023-12-01T08:20:56.623Z,5.23
2023-12-01T08:23:23.121Z,6.54
2023-12-01T08:25:49.535Z,7.56
2023-12-01T08:28:16.013Z,7.54
2023-12-01T08:30:48.809Z,7.65
2023-12-01T08:33:16.066Z,6.61
2023-12-01T08:35:42.678Z,6.02
2023-12-01T08:38:09.119Z,5.71
2023-12-01T08:40:43.084Z,5.40
2023-12-01T08:43:10.649Z,4.85
2023-12-01T08:45:37.121Z,5.34
2023-12-01T08:48:03.645Z,4.82
2023-12-01T08:50:30.169Z,5.18
2023-12-01T08:52:56.611Z,4.33
2023-12-01T08:55:23.111Z,4.38
2023-12-01T08:57:49.582Z,3.27
2023-12-01T09:00:16.149Z,1.79
2023-12-01T09:02:42.588Z,1.49
2023-12-01T09:05:09.110Z,1.68
2023-12-01T09:07:35.554Z,1.80
2023-12-01T09:10:02.039Z,1.60
2023-12-01T09:12:28.700Z,1.95
2023-12-01T09:14:55.522Z,2.28
2023-12-01T09:17:22.197Z,3.56
2023-12-01T09:19:48.748Z,4.84
2023-12-01T09:22:15.254Z,5.98
2023-12-01T09:24:41.672Z,6.34
2023-12-01T09:27:08.147Z,7.04
2023-12-01T09:29:34.693Z,7.09
2023-12-01T09:32:01.161Z,6.75
2023-12-01T09:34:27.593Z,6.61
2023-12-01T09:36:54.026Z,5.80
2023-12-01T09:39:20.603Z,5.64
2023-12-01T09:41:47.120Z,5.70
2023-12-01T09:44:14.652Z,5.56
2023-12-01T09:46:41.470Z,6.34
2023-12-01T09:49:07.908Z,6.32
2023-12-01T09:51:34.361Z,4.70
2023-12-01T09:54:00.869Z,3.12
2023-12-01T09:56:27.336Z,3.24
2023-12-01T09:58:53.740Z,2.47
2023-12-01T10:01:20.176Z,2.87
2023-12-01T10:03:46.764Z,2.34
2023-12-01T10:06:13.294Z,2.13
2023-12-01T10:08:39.881Z,2.50
2023-12-01T10:11:06.354Z,2.14
2023-12-01T10:13:32.804Z,1.66
2023-12-01T10:15:59.227Z,1.12
2023-12-01T10:18:27.197Z,0.90
2023-12-01T10:20:54.463Z,1.04
2023-12-01T10:23:21.019Z,0.85
2023-12-01T10:25:47.427Z,1.01
2023-12-01T10:28:14.153Z,1.13
2023-12-01T10:30:40.735Z,1.26
2023-12-01T10:33:07.220Z,1.19
2023-12-01T10:35:33.686Z,1.11
2023-12-01T10:38:00.087Z,0.70
2023-12-01T10:40:26.620Z,0.49
2023-12-01T10:42:53.024Z,0.63
2023-12-01T10:45:19.472Z,0.73
2023-12-01T10:47:46.023Z,0.53
2023-12-01T10:50:12.505Z,0.29
2023-12-01T10:52:38.901Z,0.64
2023-12-01T10:55:05.309Z,1.43
2023-12-01T10:57:31.678Z,0.93
2023-12-01T10:59:59.919Z,0.94
2023-12-01T11:02:26.691Z,1.05
2023-12-01T11:04:53.259Z,1.09
2023-12-01T11:07:19.742Z,1.02
2023-12-01T11:09:46.140Z,1.33
2023-12-01T11:12:12.616Z,1.08
2023-12-01T11:14:39.026Z,1.08
2023-12-01T11:17:05.491Z,1.21
2023-12-01T11:19:31.943Z,1.25
2023-12-01T11:21:58.436Z,1.36
2023-12-01T11:24:24.907Z,1.24
2023-12-01T11:26:51.361Z,1.26
2023-12-01T11:29:17.797Z,1.39
2023-12-01T11:31:44.353Z,1.29
2023-12-01T11:34:11.064Z,1.17
2023-12-01T11:36:37.832Z,1.59
2023-12-01T11:39:04.397Z,1.56
2023-12-01T11:41:30.863Z,1.39
2023-12-01T11:43:57.290Z,1.25
2023-12-01T11:46:23.815Z,1.19
2023-12-01T11:48:50.603Z,1.18
2023-12-01T11:51:17.187Z,1.37
2023-12-01T11:53:43.714Z,1.14
2023-12-01T11:56:10.130Z,1.11
2023-12-01T11:58:36.573Z,0.97
2023-12-01T12:01:02.954Z,1.06
2023-12-01T12:03:29.405Z,0.96
2023-12-01T12:05:56.142Z,0.93
2023-12-01T12:08:22.615Z,1.03
2023-12-01T12:10:49.075Z,0.92
2023-12-01T12:13:15.725Z,0.95
2023-12-01T12:15:42.230Z,0.95
2023-12-01T12:18:08.974Z,0.97
2023-12-01T12:20:35.519Z,1.09
2023-12-01T12:23:01.972Z,0.94
2023-12-01T12:25:28.410Z,1.06
2023-12-01T12:27:54.889Z,0.89
2023-12-01T12:30:21.414Z,0.96
2023-12-01T12:32:48.065Z,1.07
2023-12-01T12:35:14.680Z,0.93
2023-12-01T12:37:41.077Z,1.14
2023-12-01T12:40:07.475Z,1.22
2023-12-01T12:42:33.949Z,1.23
2023-12-01T12:45:00.437Z,1.17
2023-12-01T12:47:26.857Z,1.52
2023-12-01T12:49:53.281Z,1.42
2023-12-01T12:52:19.648Z,1.15
2023-12-01T12:54:46.045Z,1.28
2023-12-01T12:57:12.494Z,1.35
2023-12-01T12:59:39.005Z,1.47
2023-12-01T13:02:05.490Z,1.51
2023-12-01T13:04:32.002Z,1.53
2023-12-01T13:06:58.451Z,1.55
2023-12-01T13:09:24.855Z,1.26
2023-12-01T13:11:51.814Z,1.23
2023-12-01T13:14:18.201Z,1.29
2023-12-01T13:16:52.692Z,1.62
2023-12-01T13:19:22.657Z,1.49
2023-12-01T13:21:51.102Z,1.60
2023-12-01T13:24:19.428Z,2.09
2023-12-01T13:26:45.934Z,1.92
2023-12-01T13:29:12.476Z,1.33
2023-12-01T13:31:38.977Z,1.14
2023-12-01T13:34:05.564Z,1.23
2023-12-01T13:36:32.041Z,1.46
2023-12-01T13:38:58.563Z,1.83
2023-12-01T13:41:25.053Z,2.12
2023-12-01T13:43:51.449Z,1.99
2023-12-01T13:46:17.994Z,1.42
2023-12-01T13:48:44.559Z,1.19
2023-12-01T13:51:11.125Z,0.92
2023-12-01T13:53:37.684Z,0.78
2023-12-01T13:56:08.725Z,0.92
2023-12-01T13:58:37.688Z,0.74
2023-12-01T14:01:04.203Z,1.15
2023-12-01T14:03:32.394Z,1.14
2023-12-01T14:05:59.346Z,0.84
2023-12-01T14:08:25.881Z,0.86
2023-12-01T14:10:52.306Z,0.91
2023-12-01T14:13:18.720Z,0.84
2023-12-01T14:15:45.168Z,1.30
2023-12-01T14:18:11.667Z,1.27
2023-12-01T14:20:38.109Z,0.92
2023-12-01T14:23:04.510Z,0.89
2023-12-01T14:25:30.895Z,0.93
2023-12-01T14:27:57.335Z,0.90
2023-12-01T14:30:23.765Z,0.82
2023-12-01T14:32:50.273Z,1.29
2023-12-01T14:35:16.816Z,1.72
2023-12-01T14:37:43.311Z,1.67
2023-12-01T14:40:09.693Z,1.06
2023-12-01T14:42:36.071Z,0.93
2023-12-01T14:45:02.519Z,1.17
2023-12-01T14:47:29.650Z,1.10
2023-12-01T14:49:56.122Z,0.83
2023-12-01T14:52:22.517Z,0.95
2023-12-01T14:54:48.929Z,0.84
2023-12-01T14:57:15.342Z,0.86
2023-12-01T14:59:43.873Z,0.65
2023-12-01T15:02:10.588Z,0.74
2023-12-01T15:04:37.056Z,0.75
2023-12-01T15:07:03.486Z,1.11
2023-12-01T15:09:29.903Z,0.92
2023-12-01T15:11:56.324Z,0.78
2023-12-01T15:14:22.732Z,0.83
2023-12-01T15:16:49.361Z,0.87
2023-12-01T15:19:15.784Z,0.69
2023-12-01T15:21:42.164Z,0.91
2023-12-01T15:24:08.556Z,0.76
2023-12-01T15:26:34.992Z,0.86
2023-12-01T15:29:01.387Z,0.95
2023-12-01T15:31:27.817Z,0.86
2023-12-01T15:33:54.276Z,0.91
2023-12-01T15:36:20.797Z,0.56
2023-12-01T15:38:47.245Z,0.31
2023-12-01T15:41:13.643Z,0.36
2023-12-01T15:43:40.022Z,0.49
2023-12-01T15:46:06.448Z,0.92
2023-12-01T15:48:32.963Z,0.90
2023-12-01T15:50:59.478Z,0.51
2023-12-01T15:53:25.929Z,0.57
2023-12-01T15:55:52.334Z,0.57
2023-12-01T15:58:18.784Z,1.07
2023-12-01T16:00:45.360Z,1.16
2023-12-01T16:03:11.981Z,0.83
2023-12-01T16:05:38.453Z,0.83
2023-12-01T16:08:04.916Z,0.64
2023-12-01T16:10:31.342Z,0.73
2023-12-01T16:12:57.743Z,0.71
2023-12-01T16:15:24.171Z,0.66
2023-12-01T16:17:50.708Z,0.52
2023-12-01T16:20:17.285Z,1.10
2023-12-01T16:22:43.825Z,1.08
2023-12-01T16:25:10.314Z,0.88
2023-12-01T16:27:36.741Z,1.17
2023-12-01T16:30:03.259Z,1.69
2023-12-01T16:32:29.828Z,1.35
2023-12-01T16:34:56.309Z,1.81
2023-12-01T16:37:22.786Z,2.25
2023-12-01T16:39:51.764Z,1.81
2023-12-01T16:42:18.204Z,1.25
2023-12-01T16:44:44.642Z,1.19
2023-12-01T16:47:11.211Z,1.54
2023-12-01T16:49:37.755Z,1.71
2023-12-01T16:52:04.216Z,2.69
2023-12-01T16:54:30.663Z,2.83
2023-12-01T16:56:57.132Z,1.58
2023-12-01T16:59:23.588Z,1.45
2023-12-01T17:01:50.020Z,1.66
2023-12-01T17:04:16.555Z,1.86
2023-12-01T17:06:43.027Z,1.79
2023-12-01T17:09:09.459Z,1.83
2023-12-01T17:11:35.976Z,2.24
2023-12-01T17:14:02.436Z,2.46
2023-12-01T17:16:28.935Z,2.64
2023-12-01T17:18:55.535Z,2.75
2023-12-01T17:21:24.441Z,3.07
2023-12-01T17:23:50.919Z,3.29
2023-12-01T17:26:17.394Z,3.49
2023-12-01T17:28:43.819Z,3.12
2023-12-01T17:31:10.247Z,2.99
2023-12-01T17:33:36.766Z,2.78
2023-12-01T17:36:03.330Z,2.64
2023-12-01T17:38:29.859Z,2.82
2023-12-01T17:40:56.293Z,5.00
2023-12-01T17:43:22.725Z,6.73
2023-12-01T17:45:49.158Z,4.31
2023-12-01T17:48:15.779Z,3.90
2023-12-01T17:50:42.249Z,3.48
2023-12-01T17:53:08.651Z,3.65
2023-12-01T17:55:35.069Z,3.39
2023-12-01T17:58:01.535Z,2.73
2023-12-01T18:00:27.996Z,2.81
2023-12-01T18:02:54.473Z,2.98
2023-12-01T18:05:21.010Z,3.14
2023-12-01T18:07:47.575Z,3.45
2023-12-01T18:10:14.058Z,4.46
2023-12-01T18:12:40.481Z,4.74
2023-12-01T18:15:06.990Z,4.05
2023-12-01T18:17:33.575Z,4.10
2023-12-01T18:20:00.055Z,5.08
2023-12-01T18:22:26.550Z,4.52
2023-12-01T18:24:52.951Z,4.94
2023-12-01T18:27:19.489Z,7.81
2023-12-01T18:29:46.014Z,6.40
2023-12-01T18:32:12.445Z,5.21
2023-12-01T18:34:38.888Z,4.56
2023-12-01T18:37:05.333Z,4.35
2023-12-01T18:39:31.814Z,4.91
2023-12-01T18:41:58.321Z,4.95
2023-12-01T18:44:24.794Z,8.05
2023-12-01T18:46:51.406Z,13.85
2023-12-01T18:49:17.897Z,5.10
2023-12-01T18:51:44.400Z,6.83
2023-12-01T18:54:10.963Z,8.48
2023-12-01T18:56:37.761Z,6.18
2023-12-01T18:59:04.262Z,3.90
2023-12-01T19:01:30.814Z,1.50
2023-12-01T19:03:57.413Z,1.40
2023-12-01T19:06:23.967Z,2.27
2023-12-01T19:08:50.566Z,2.91
2023-12-01T19:11:17.111Z,3.13
2023-12-01T19:13:43.572Z,2.77
2023-12-01T19:16:10.049Z,1.53
2023-12-01T19:18:38.581Z,2.58
2023-12-01T19:21:05.289Z,4.65
2023-12-01T19:23:31.792Z,5.26
2023-12-01T19:25:58.201Z,5.61
2023-12-01T19:28:24.652Z,3.64
2023-12-01T19:30:51.161Z,2.45
2023-12-01T19:33:20.819Z,2.92
2023-12-01T19:35:47.450Z,3.39
2023-12-01T19:38:13.899Z,3.88
2023-12-01T19:40:40.398Z,5.08
2023-12-01T19:43:06.833Z,4.42
2023-12-01T19:45:33.390Z,3.59
2023-12-01T19:47:59.924Z,1.99
2023-12-01T19:50:26.387Z,1.87
2023-12-01T19:52:52.793Z,1.56
2023-12-01T19:55:19.220Z,2.00
2023-12-01T19:57:45.636Z,2.45
2023-12-01T20:00:15.029Z,2.43
2023-12-01T20:02:41.489Z,2.75
2023-12-01T20:05:07.993Z,2.79
2023-12-01T20:07:34.493Z,2.92
2023-12-01T20:10:00.919Z,2.38
2023-12-01T20:12:27.383Z,3.20
2023-12-01T20:14:53.848Z,6.40
2023-12-01T20:17:20.274Z,3.64
2023-12-01T20:19:46.694Z,3.37
2023-12-01T20:22:13.122Z,2.47
2023-12-01T20:24:39.533Z,2.84
2023-12-01T20:27:06.008Z,2.67
2023-12-01T20:29:32.438Z,2.18
2023-12-01T20:31:58.859Z,2.67
2023-12-01T20:34:25.273Z,1.42
2023-12-01T20:36:51.781Z,1.94
2023-12-01T20:39:18.282Z,3.37
2023-12-01T20:41:44.724Z,4.75
2023-12-01T20:44:11.143Z,9.60
2023-12-01T20:46:37.620Z,12.28
2023-12-01T20:49:04.102Z,3.58
2023-12-01T20:51:30.585Z,3.36
2023-12-01T20:53:57.179Z,4.33
2023-12-01T20:56:23.597Z,6.87
2023-12-01T20:58:50.042Z,9.17
2023-12-01T21:01:18.381Z,10.02
2023-12-01T21:03:46.152Z,11.87
2023-12-01T21:06:12.629Z,6.68
2023-12-01T21:08:39.075Z,3.27
2023-12-01T21:11:05.525Z,2.66
2023-12-01T21:13:31.962Z,2.97
2023-12-01T21:15:58.367Z,2.30
2023-12-01T21:18:24.910Z,1.98
2023-12-01T21:20:51.407Z,1.83
2023-12-01T21:23:17.884Z,1.92
2023-12-01T21:25:44.348Z,1.84
2023-12-01T21:28:10.802Z,1.64
2023-12-01T21:30:37.271Z,1.81
2023-12-01T21:33:05.996Z,2.04
2023-12-01T21:35:34.190Z,2.30
2023-12-01T21:38:00.615Z,2.26
2023-12-01T21:40:27.077Z,2.13
2023-12-01T21:42:53.518Z,2.50
2023-12-01T21:45:20.006Z,4.62
2023-12-01T21:47:46.423Z,3.37
2023-12-01T21:50:13.066Z,2.48
2023-12-01T21:52:39.542Z,2.05
2023-12-01T21:55:05.961Z,1.95
2023-12-01T21:57:32.468Z,3.70
2023-12-01T21:59:58.975Z,5.30
2023-12-01T22:02:25.518Z,6.70
2023-12-01T22:04:52.026Z,3.40
2023-12-01T22:07:18.445Z,3.12
2023-12-01T22:09:44.865Z,2.72
2023-12-01T22:12:11.311Z,2.73
2023-12-01T22:14:37.800Z,2.68
2023-12-01T22:17:04.237Z,2.95
2023-12-01T22:19:30.811Z,3.22
2023-12-01T22:21:59.814Z,3.63
2023-12-01T22:24:26.584Z,3.28
2023-12-01T22:26:53.028Z,2.46
2023-12-01T22:29:19.483Z,2.10
2023-12-01T22:31:45.948Z,3.41
2023-12-01T22:34:12.398Z,4.00
2023-12-01T22:36:38.797Z,3.68
2023-12-01T22:39:05.282Z,3.99
2023-12-01T22:41:31.793Z,4.15
2023-12-01T22:44:01.788Z,3.89
2023-12-01T22:46:28.533Z,3.23
2023-12-01T22:48:55.119Z,2.66
2023-12-01T22:51:21.632Z,2.60
2023-12-01T22:53:48.178Z,2.14
2023-12-01T22:56:14.702Z,2.01
2023-12-01T22:58:43.133Z,2.24
2023-12-01T23:01:09.647Z,2.29
2023-12-01T23:03:36.327Z,2.48
2023-12-01T23:06:03.171Z,2.59
2023-12-01T23:08:29.725Z,2.19
2023-12-01T23:11:03.867Z,2.25
2023-12-01T23:13:30.370Z,2.10
2023-12-01T23:15:56.854Z,2.07
2023-12-01T23:18:23.465Z,2.04
2023-12-01T23:20:50.003Z,2.26
2023-12-01T23:23:16.539Z,2.81
2023-12-01T23:25:43.006Z,3.48
2023-12-01T23:28:09.577Z,2.84
2023-12-01T23:30:36.178Z,2.30
2023-12-01T23:33:02.796Z,2.14
2023-12-01T23:35:29.423Z,2.38
2023-12-01T23:37:55.909Z,2.08
2023-12-01T23:40:22.351Z,1.68
2023-12-01T23:42:48.818Z,1.39
2023-12-01T23:45:15.332Z,1.47
2023-12-01T23:47:41.916Z,1.28
2023-12-01T23:50:08.426Z,1.34
2023-12-01T23:52:34.952Z,1.44
2023-12-01T23:55:01.441Z,1.66
2023-12-01T23:57:27.946Z,2.33
2023-12-01T23:59:54.482Z,1.87
